Time;durP1;ratioP1;P1;durP2;ratioP2;P2;SDS_P1;SDS_P2;PMS_P1;PMS_P2;Temp;Humidity;BMP_temperature;BMP_pressure;BME280_temperature;BME280_humidity;BME280_pressure;Samples;Min_cycle;Max_cycle;Signal;HPM_P1;HPM_P2
2021/05/08 00:00:34;;;;;;;2.60;1.00;;;22.10;36.70;;;;;;5045463;28;20035;-53
2021/05/08 00:03:01;;;;;;;1.80;0.70;;;22.10;36.70;;;;;;5050041;28;20044;-52
2021/05/08 00:05:28;;;;;;;1.63;0.77;;;22.10;36.70;;;;;;5052292;28;20596;-53
2021/05/08 00:07:54;;;;;;;3.10;0.90;;;22.10;36.70;;;;;;5049541;28;20033;-55
2021/05/08 00:10:21;;;;;;;3.33;0.77;;;22.10;36.70;;;;;;5049105;28;20083;-55
2021/05/08 00:12:47;;;;;;;2.22;0.60;;;22.10;36.70;;;;;;5050510;28;20033;-54
2021/05/08 00:15:15;;;;;;;1.95;0.52;;;22.10;36.70;;;;;;5048683;28;20124;-54
2021/05/08 00:17:42;;;;;;;1.38;0.50;;;22.10;36.70;;;;;;5048944;28;20037;-55
2021/05/08 00:20:10;;;;;;;1.33;0.40;;;22.10;36.80;;;;;;5048981;28;20025;-55
2021/05/08 00:22:37;;;;;;;2.65;0.55;;;22.00;36.60;;;;;;5044504;28;20105;-55
2021/05/08 00:25:08;;;;;;;2.58;0.50;;;22.10;36.70;;;;;;5048759;28;20021;-54
2021/05/08 00:27:34;;;;;;;1.08;0.40;;;22.00;36.60;;;;;;5043833;28;20029;-55
2021/05/08 00:30:00;;;;;;;1.02;0.40;;;22.00;36.60;;;;;;5048747;28;20489;-54
2021/05/08 00:32:26;;;;;;;1.75;0.47;;;22.00;36.60;;;;;;5048069;28;20612;-54
2021/05/08 00:34:52;;;;;;;1.73;0.40;;;22.00;36.60;;;;;;5049108;28;20025;-56
2021/05/08 00:37:18;;;;;;;1.10;0.25;;;22.00;37.10;;;;;;5047939;28;20025;-55
2021/05/08 00:39:44;;;;;;;1.77;0.40;;;22.00;36.70;;;;;;5049100;28;20083;-54
2021/05/08 00:42:10;;;;;;;0.88;0.20;;;22.00;36.60;;;;;;5048629;28;20553;-54
2021/05/08 00:44:37;;;;;;;1.45;0.50;;;21.90;36.60;;;;;;5051368;28;20156;-54
2021/05/08 00:47:03;;;;;;;3.03;0.45;;;21.90;36.60;;;;;;5048449;28;20386;-53
2021/05/08 00:49:31;;;;;;;1.35;0.40;;;21.90;36.60;;;;;;5048357;28;20029;-56
2021/05/08 00:51:59;;;;;;;0.70;0.20;;;21.90;36.60;;;;;;5048373;28;20047;-54
2021/05/08 00:54:25;;;;;;;0.70;0.38;;;21.90;36.50;;;;;;5048753;28;20359;-55
2021/05/08 00:56:51;;;;;;;0.75;0.22;;;21.90;36.60;;;;;;5046705;28;20018;-54
2021/05/08 00:59:17;;;;;;;0.80;0.10;;;21.90;36.50;;;;;;5048435;28;20032;-54
2021/05/08 01:01:43;;;;;;;1.63;0.43;;;21.90;36.60;;;;;;5048043;28;20060;-54
2021/05/08 01:04:10;;;;;;;1.00;0.28;;;21.90;36.60;;;;;;5048417;28;20397;-55
2021/05/08 01:06:39;;;;;;;1.88;0.20;;;21.90;36.60;;;;;;5048112;28;20108;-55
2021/05/08 01:09:05;;;;;;;1.13;0.30;;;21.80;36.50;;;;;;5048854;28;20071;-54
2021/05/08 01:11:32;;;;;;;0.63;0.30;;;21.80;36.50;;;;;;5048059;28;20013;-53
2021/05/08 01:13:58;;;;;;;1.60;0.30;;;21.80;36.50;;;;;;5050649;28;20108;-55
2021/05/08 01:16:24;;;;;;;0.75;0.20;;;21.80;36.50;;;;;;5047821;28;20109;-55
2021/05/08 01:18:53;;;;;;;0.60;0.17;;;21.80;36.50;;;;;;5048097;28;20024;-55
2021/05/08 01:21:21;;;;;;;0.80;0.22;;;21.80;36.50;;;;;;5048077;28;20036;-54
2021/05/08 01:23:49;;;;;;;0.82;0.20;;;21.80;36.50;;;;;;5047483;28;20032;-55
2021/05/08 01:26:15;;;;;;;0.70;0.20;;;21.80;36.50;;;;;;5048146;28;20033;-54
2021/05/08 01:28:42;;;;;;;0.45;0.20;;;21.80;36.40;;;;;;5048116;28;20119;-54
2021/05/08 01:31:09;;;;;;;0.80;0.20;;;21.80;36.50;;;;;;5047900;28;20069;-53
2021/05/08 01:33:35;;;;;;;0.70;0.17;;;21.80;36.50;;;;;;5047765;28;20032;-55
2021/05/08 01:36:03;;;;;;;2.25;0.20;;;21.80;36.40;;;;;;5049591;28;20109;-55
2021/05/08 01:38:30;;;;;;;0.68;0.20;;;21.80;36.40;;;;;;5053332;28;20029;-54
2021/05/08 01:41:00;;;;;;;1.15;0.30;;;21.80;36.40;;;;;;5051818;28;20025;-54
2021/05/08 01:43:27;;;;;;;0.85;0.10;;;21.80;36.40;;;;;;5052638;28;20112;-54
2021/05/08 01:45:53;;;;;;;1.05;0.40;;;21.70;36.40;;;;;;5051788;28;20029;-54
2021/05/08 01:48:21;;;;;;;2.65;0.20;;;21.70;36.40;;;;;;5051376;28;20025;-55
2021/05/08 01:50:47;;;;;;;1.08;0.20;;;21.70;36.40;;;;;;5051734;28;20071;-54
2021/05/08 01:53:13;;;;;;;1.02;0.25;;;21.70;36.30;;;;;;5050756;28;20083;-54
2021/05/08 01:55:39;;;;;;;0.85;0.10;;;21.70;36.40;;;;;;5050728;28;20032;-54
2021/05/08 01:58:05;;;;;;;0.70;0.20;;;21.70;36.40;;;;;;5051538;28;20531;-55
2021/05/08 02:00:37;;;;;;;1.88;0.20;;;21.70;36.40;;;;;;5048162;28;20108;-56
2021/05/08 02:03:04;;;;;;;0.82;0.20;;;21.70;36.30;;;;;;5051612;28;20047;-54
2021/05/08 02:05:32;;;;;;;0.68;0.20;;;21.70;36.40;;;;;;5040023;28;20033;-54
2021/05/08 02:08:03;;;;;;;1.17;0.20;;;21.70;36.40;;;;;;5049865;28;20021;-55
2021/05/08 02:10:30;;;;;;;1.90;0.17;;;21.70;36.30;;;;;;5051620;28;20371;-55
2021/05/08 02:13:01;;;;;;;0.73;0.20;;;21.70;36.40;;;;;;5053609;28;20021;-53
2021/05/08 02:15:27;;;;;;;1.92;0.40;;;21.60;36.40;;;;;;5050207;28;20029;-54
2021/05/08 02:17:53;;;;;;;0.60;0.20;;;21.60;36.30;;;;;;5051064;28;20377;-54
2021/05/08 02:20:27;;;;;;;0.50;0.10;;;21.60;36.40;;;;;;5050498;28;20044;-55
2021/05/08 02:22:54;;;;;;;1.33;0.40;;;21.60;36.30;;;;;;5051541;28;20045;-55
2021/05/08 02:25:21;;;;;;;0.40;0.20;;;21.60;36.30;;;;;;5044045;28;20033;-55
2021/05/08 02:27:47;;;;;;;1.20;0.20;;;21.60;36.30;;;;;;5044167;28;20032;-54
2021/05/08 02:30:15;;;;;;;0.85;0.20;;;21.60;36.30;;;;;;5050678;28;20029;-54
2021/05/08 02:32:41;;;;;;;0.75;0.30;;;21.60;36.30;;;;;;5051303;28;20419;-52
2021/05/08 02:35:10;;;;;;;0.50;0.20;;;21.60;36.30;;;;;;5049853;28;20104;-53
2021/05/08 02:37:36;;;;;;;0.85;0.20;;;21.60;36.30;;;;;;5050239;28;20021;-54
2021/05/08 02:40:07;;;;;;;1.27;0.30;;;21.60;36.30;;;;;;5050046;28;20036;-56
2021/05/08 02:42:33;;;;;;;1.08;0.40;;;21.50;36.30;;;;;;5054151;28;20493;-55
2021/05/08 02:44:59;;;;;;;0.90;0.20;;;21.50;36.20;;;;;;5049834;28;20036;-57
2021/05/08 02:47:25;;;;;;;0.60;0.22;;;21.50;36.30;;;;;;5050655;28;20714;-52
2021/05/08 02:49:54;;;;;;;1.15;0.40;;;21.50;36.30;;;;;;5050148;28;20041;-52
2021/05/08 02:52:20;;;;;;;1.17;0.30;;;21.50;36.30;;;;;;5050216;28;20025;-54
2021/05/08 02:54:46;;;;;;;1.20;0.20;;;21.50;36.30;;;;;;5050158;28;20083;-54
2021/05/08 02:57:13;;;;;;;0.63;0.30;;;21.50;36.30;;;;;;5044125;28;20025;-54
2021/05/08 02:59:38;;;;;;;1.30;0.47;;;21.50;36.30;;;;;;5050629;28;20029;-55
2021/05/08 03:02:05;;;;;;;0.93;0.40;;;21.50;36.30;;;;;;5050876;28;20025;-52
2021/05/08 03:04:31;;;;;;;0.73;0.22;;;21.50;36.30;;;;;;5049796;28;20416;-55
2021/05/08 03:06:58;;;;;;;0.45;0.15;;;21.50;36.30;;;;;;5050526;28;20032;-54
2021/05/08 03:09:24;;;;;;;1.05;0.43;;;21.40;36.30;;;;;;5047553;28;20025;-52
2021/05/08 03:11:50;;;;;;;0.77;0.20;;;21.40;36.30;;;;;;5050822;28;20025;-54
2021/05/08 03:14:16;;;;;;;0.45;0.20;;;21.50;36.30;;;;;;5049885;28;20056;-52
2021/05/08 03:16:43;;;;;;;1.30;0.40;;;21.40;36.30;;;;;;5046693;28;20025;-56
2021/05/08 03:19:10;;;;;;;1.30;0.30;;;21.40;36.30;;;;;;5048896;28;20494;-52
2021/05/08 03:21:37;;;;;;;1.73;0.47;;;21.40;36.30;;;;;;5049599;28;20112;-56
2021/05/08 03:24:04;;;;;;;1.50;0.40;;;21.40;36.20;;;;;;5050066;28;20025;-53
2021/05/08 03:26:30;;;;;;;0.93;0.40;;;21.40;36.20;;;;;;5048946;28;20637;-53
2021/05/08 03:28:56;;;;;;;0.75;0.20;;;21.40;36.20;;;;;;5049373;28;20029;-54
2021/05/08 03:31:22;;;;;;;0.80;0.52;;;21.40;36.30;;;;;;5050440;28;20044;-55
2021/05/08 03:33:48;;;;;;;1.20;0.32;;;21.40;36.30;;;;;;5050446;28;20021;-56
2021/05/08 03:36:14;;;;;;;0.93;0.40;;;21.40;36.20;;;;;;5047125;28;20032;-53
2021/05/08 03:38:40;;;;;;;1.63;0.30;;;21.40;36.20;;;;;;5049969;28;20497;-54
2021/05/08 03:41:06;;;;;;;1.42;0.40;;;21.40;36.20;;;;;;5047901;28;20110;-55
2021/05/08 03:43:32;;;;;;;0.88;0.30;;;21.40;36.20;;;;;;5052457;28;20049;-54
2021/05/08 03:45:58;;;;;;;1.25;0.30;;;21.40;36.30;;;;;;5045388;28;20122;-54
2021/05/08 03:48:25;;;;;;;0.88;0.47;;;21.40;36.20;;;;;;5049414;28;20036;-53
2021/05/08 03:50:52;;;;;;;0.90;0.40;;;21.40;36.20;;;;;;5049124;28;20111;-53
2021/05/08 03:53:22;;;;;;;0.98;0.57;;;21.40;36.20;;;;;;5049427;28;20479;-54
2021/05/08 03:55:52;;;;;;;1.60;0.60;;;21.40;36.20;;;;;;5048598;28;20033;-53
2021/05/08 03:58:29;;;;;;;1.05;0.50;;;21.30;36.20;;;;;;5043756;28;20036;-53
2021/05/08 04:00:56;;;;;;;3.60;0.52;;;21.30;36.20;;;;;;5049452;28;20029;-53
2021/05/08 04:03:22;;;;;;;0.95;0.40;;;21.30;36.20;;;;;;5049491;28;20037;-53
2021/05/08 04:05:48;;;;;;;2.70;0.40;;;21.30;36.20;;;;;;5050038;28;20038;-53
2021/05/08 04:08:14;;;;;;;0.68;0.40;;;21.30;36.30;;;;;;5049821;28;20043;-53
2021/05/08 04:10:40;;;;;;;0.70;0.30;;;21.30;36.20;;;;;;5050864;28;20048;-54
2021/05/08 04:13:06;;;;;;;0.68;0.38;;;21.30;36.20;;;;;;5051911;28;20102;-55
2021/05/08 04:15:32;;;;;;;0.70;0.30;;;21.30;36.30;;;;;;5048702;28;20072;-54
2021/05/08 04:17:58;;;;;;;1.35;0.35;;;21.30;36.20;;;;;;5041864;28;20028;-53
2021/05/08 04:20:25;;;;;;;0.80;0.30;;;21.30;36.20;;;;;;5048742;28;20068;-54
2021/05/08 04:22:51;;;;;;;1.40;0.50;;;21.30;36.20;;;;;;5048771;28;20029;-54
2021/05/08 04:25:17;;;;;;;1.38;0.30;;;21.30;36.20;;;;;;5047898;28;20033;-54
2021/05/08 04:27:43;;;;;;;0.80;0.40;;;21.30;36.20;;;;;;5042423;28;20040;-53
2021/05/08 04:30:10;;;;;;;0.70;0.30;;;21.30;36.20;;;;;;5050008;28;20406;-54
2021/05/08 04:32:36;;;;;;;1.58;0.30;;;21.30;36.20;;;;;;5052086;28;20021;-53
2021/05/08 04:35:02;;;;;;;0.93;0.35;;;21.20;36.10;;;;;;5047999;28;20024;-54
2021/05/08 04:37:28;;;;;;;0.85;0.45;;;21.20;36.20;;;;;;5047892;28;20898;-53
2021/05/08 04:39:55;;;;;;;0.88;0.30;;;21.20;36.20;;;;;;5048136;28;20029;-53
2021/05/08 04:42:22;;;;;;;0.95;0.30;;;21.30;36.20;;;;;;5048225;28;20113;-54
2021/05/08 04:44:48;;;;;;;1.50;0.40;;;21.20;36.20;;;;;;5048086;28;20486;-56
2021/05/08 04:47:14;;;;;;;0.70;0.40;;;21.20;36.20;;;;;;5047913;28;20041;-55
2021/05/08 04:49:40;;;;;;;1.27;0.43;;;21.20;36.20;;;;;;5048651;28;20048;-54
2021/05/08 04:52:07;;;;;;;0.75;0.30;;;21.20;36.20;;;;;;5047843;28;20049;-55
2021/05/08 04:54:32;;;;;;;0.55;0.20;;;21.20;36.20;;;;;;5047934;28;20036;-55
2021/05/08 04:56:58;;;;;;;0.52;0.20;;;21.20;36.20;;;;;;5040396;28;20017;-55
2021/05/08 04:59:24;;;;;;;0.57;0.20;;;21.20;36.20;;;;;;5047805;28;20032;-55
2021/05/08 05:01:50;;;;;;;1.00;0.25;;;21.20;36.20;;;;;;5047536;28;20025;-55
2021/05/08 05:04:16;;;;;;;1.42;0.20;;;21.20;36.20;;;;;;5048066;28;20644;-53
2021/05/08 05:06:42;;;;;;;0.73;0.40;;;21.20;36.20;;;;;;5048085;28;20247;-53
2021/05/08 05:09:08;;;;;;;0.45;0.30;;;21.20;36.20;;;;;;5045258;28;20043;-53
2021/05/08 05:11:34;;;;;;;0.88;0.30;;;21.20;36.20;;;;;;5050523;28;20055;-52
2021/05/08 05:14:00;;;;;;;0.80;0.30;;;21.20;36.20;;;;;;5054747;28;20033;-54
2021/05/08 05:16:26;;;;;;;1.75;0.30;;;21.20;36.20;;;;;;5052183;28;20252;-53
2021/05/08 05:18:52;;;;;;;2.35;0.22;;;21.10;36.20;;;;;;5051716;28;20473;-54
2021/05/08 05:21:18;;;;;;;0.50;0.20;;;21.20;36.20;;;;;;5052132;28;20028;-53
2021/05/08 05:23:44;;;;;;;0.68;0.38;;;21.10;36.20;;;;;;5052365;28;20079;-55
2021/05/08 05:26:10;;;;;;;1.75;0.32;;;21.10;36.20;;;;;;5047861;28;20029;-55
2021/05/08 05:28:36;;;;;;;1.38;0.40;;;21.20;36.20;;;;;;5055462;28;20529;-54
2021/05/08 05:31:02;;;;;;;1.05;0.38;;;21.20;36.20;;;;;;5056134;28;20095;-53
2021/05/08 05:33:27;;;;;;;0.75;0.30;;;21.10;36.20;;;;;;5053577;28;20021;-53
2021/05/08 05:35:56;;;;;;;0.73;0.30;;;21.20;36.20;;;;;;5051527;28;20181;-52
2021/05/08 05:38:24;;;;;;;0.55;0.25;;;21.10;36.20;;;;;;5050469;28;20033;-53
2021/05/08 05:40:53;;;;;;;1.08;0.30;;;21.10;36.20;;;;;;5063298;28;20043;-52
2021/05/08 05:43:20;;;;;;;0.60;0.30;;;21.20;36.20;;;;;;5050591;28;20031;-53
2021/05/08 05:45:46;;;;;;;0.68;0.38;;;21.20;36.20;;;;;;5051170;28;20025;-54
2021/05/08 05:48:12;;;;;;;0.90;0.30;;;21.20;36.20;;;;;;5047806;28;20029;-53
2021/05/08 05:50:39;;;;;;;1.45;0.30;;;21.10;36.20;;;;;;5051971;28;20075;-53
2021/05/08 05:53:06;;;;;;;0.80;0.40;;;21.20;36.20;;;;;;5049753;28;20020;-56
2021/05/08 05:55:33;;;;;;;0.95;0.38;;;21.10;36.10;;;;;;5050419;28;20582;-54
2021/05/08 05:57:59;;;;;;;1.42;0.38;;;21.10;36.10;;;;;;5046572;28;20039;-54
2021/05/08 06:00:25;;;;;;;0.63;0.20;;;21.10;36.20;;;;;;5051921;28;20021;-53
2021/05/08 06:02:51;;;;;;;3.83;0.52;;;21.20;36.20;;;;;;5050726;28;20450;-53
2021/05/08 06:05:17;;;;;;;1.45;0.47;;;21.10;36.10;;;;;;5043226;28;20104;-55
2021/05/08 06:07:43;;;;;;;0.63;0.30;;;21.10;36.10;;;;;;5051102;28;20102;-53
2021/05/08 06:10:11;;;;;;;0.80;0.30;;;21.10;36.20;;;;;;5051204;28;20025;-54
2021/05/08 06:12:38;;;;;;;0.65;0.35;;;21.10;36.30;;;;;;5049691;28;20021;-54
2021/05/08 06:15:05;;;;;;;0.70;0.30;;;21.20;36.20;;;;;;5051183;28;20025;-53
2021/05/08 06:17:31;;;;;;;0.73;0.30;;;21.10;36.10;;;;;;5051100;28;20107;-54
2021/05/08 06:19:57;;;;;;;1.13;0.43;;;21.10;36.10;;;;;;5051603;28;20107;-56
2021/05/08 06:22:23;;;;;;;0.90;0.30;;;21.20;36.20;;;;;;5049481;28;21122;-53
2021/05/08 06:24:49;;;;;;;0.80;0.40;;;21.20;36.20;;;;;;5051367;28;20040;-51
2021/05/08 06:27:15;;;;;;;1.00;0.35;;;21.10;36.10;;;;;;5050217;28;20075;-54
2021/05/08 06:29:41;;;;;;;0.95;0.20;;;21.10;36.10;;;;;;5051496;28;20037;-53
2021/05/08 06:32:07;;;;;;;1.80;0.35;;;21.20;36.20;;;;;;5050031;28;20416;-54
2021/05/08 06:34:33;;;;;;;1.02;0.50;;;21.20;36.20;;;;;;5051453;28;20082;-54
2021/05/08 06:37:00;;;;;;;0.65;0.32;;;21.20;36.20;;;;;;5050795;28;20111;-54
2021/05/08 06:39:27;;;;;;;1.45;0.20;;;21.20;36.20;;;;;;5050473;28;20056;-56
2021/05/08 06:41:53;;;;;;;0.73;0.22;;;21.20;36.20;;;;;;5051132;28;20078;-53
2021/05/08 06:44:20;;;;;;;1.10;0.32;;;21.20;36.20;;;;;;5052443;28;20037;-54
2021/05/08 06:46:46;;;;;;;0.70;0.40;;;21.20;36.20;;;;;;5050528;28;20043;-53
2021/05/08 06:49:12;;;;;;;1.63;0.43;;;21.20;36.20;;;;;;5048746;28;20030;-53
2021/05/08 06:51:38;;;;;;;0.85;0.40;;;21.20;36.70;;;;;;5049779;28;20494;-54
2021/05/08 06:54:05;;;;;;;1.10;0.50;;;21.20;36.20;;;;;;5050315;28;20596;-56
2021/05/08 06:56:31;;;;;;;0.60;0.30;;;21.20;36.20;;;;;;5050278;28;20033;-54
2021/05/08 06:58:58;;;;;;;0.93;0.35;;;21.20;36.20;;;;;;5050215;28;20032;-54
2021/05/08 07:01:24;;;;;;;1.20;0.30;;;21.20;36.20;;;;;;5050389;28;20102;-54
2021/05/08 07:03:50;;;;;;;1.48;0.40;;;21.20;36.20;;;;;;5050168;28;20086;-53
2021/05/08 07:06:16;;;;;;;2.33;0.60;;;21.20;36.20;;;;;;5049759;28;20033;-53
2021/05/08 07:08:42;;;;;;;0.98;0.40;;;21.20;36.20;;;;;;5050117;28;20039;-53
2021/05/08 07:11:08;;;;;;;1.63;0.50;;;21.20;36.20;;;;;;5045597;28;20044;-55
2021/05/08 07:13:34;;;;;;;0.85;0.30;;;21.20;36.20;;;;;;5047825;28;20421;-54
2021/05/08 07:16:00;;;;;;;1.85;0.38;;;21.20;36.20;;;;;;5049254;28;20031;-55
2021/05/08 07:18:26;;;;;;;2.80;0.50;;;21.20;36.20;;;;;;5049786;28;20124;-54
2021/05/08 07:20:53;;;;;;;1.27;0.32;;;21.20;36.20;;;;;;5049594;28;20025;-53
2021/05/08 07:23:19;;;;;;;0.80;0.40;;;21.20;36.20;;;;;;5050043;28;20084;-54
2021/05/08 07:25:45;;;;;;;0.82;0.47;;;21.20;36.20;;;;;;5050272;28;20122;-55
2021/05/08 07:28:13;;;;;;;0.80;0.30;;;21.20;36.20;;;;;;5050107;28;20055;-53
2021/05/08 07:30:40;;;;;;;0.88;0.40;;;21.20;36.20;;;;;;5049530;28;20040;-51
2021/05/08 07:33:07;;;;;;;1.13;0.63;;;21.20;36.20;;;;;;5049616;28;20013;-54
2021/05/08 07:35:33;;;;;;;1.40;0.57;;;21.20;36.20;;;;;;5050004;28;20032;-55
2021/05/08 07:37:59;;;;;;;1.90;0.65;;;21.20;36.20;;;;;;5051802;28;20020;-53
2021/05/08 07:40:25;;;;;;;0.93;0.40;;;21.20;36.20;;;;;;5048636;28;20043;-55
2021/05/08 07:42:51;;;;;;;1.15;0.57;;;21.20;36.20;;;;;;5050401;28;20391;-54
2021/05/08 07:45:17;;;;;;;1.10;0.50;;;21.20;36.20;;;;;;5044859;28;20106;-54
2021/05/08 07:47:43;;;;;;;0.88;0.55;;;21.20;36.20;;;;;;5048463;28;20040;-56
2021/05/08 07:52:46;;;;;;;1.58;0.30;;;21.20;36.20;;;;;;5026547;28;20091;-49
2021/05/08 07:55:12;;;;;;;1.58;0.90;;;21.20;36.20;;;;;;5024155;28;20033;-49
2021/05/08 07:57:39;;;;;;;1.42;0.80;;;21.20;36.20;;;;;;5034968;28;20372;-49
2021/05/08 08:00:10;;;;;;;1.30;0.60;;;21.20;36.20;;;;;;5031148;28;20021;-49
2021/05/08 08:02:36;;;;;;;1.50;0.68;;;21.20;36.20;;;;;;5010900;28;20038;-49
2021/05/08 08:05:04;;;;;;;0.85;0.50;;;21.20;36.20;;;;;;5011801;28;20057;-50
2021/05/08 08:07:31;;;;;;;1.13;0.60;;;21.20;36.20;;;;;;5011182;28;20041;-50
2021/05/08 08:09:57;;;;;;;1.60;0.55;;;21.20;36.20;;;;;;5011833;28;20506;-49
2021/05/08 08:12:22;;;;;;;2.25;0.75;;;21.20;36.20;;;;;;5011330;28;20072;-48
2021/05/08 08:14:49;;;;;;;3.55;1.27;;;21.20;36.20;;;;;;5011346;28;20021;-51
2021/05/08 08:17:15;;;;;;;1.20;0.65;;;21.20;36.20;;;;;;5011579;28;20028;-50
2021/05/08 08:19:44;;;;;;;1.70;0.75;;;21.20;36.20;;;;;;5011403;28;20060;-49
2021/05/08 08:22:10;;;;;;;1.27;0.95;;;21.20;36.20;;;;;;5011133;28;20041;-51
2021/05/08 08:24:36;;;;;;;1.02;0.75;;;21.20;36.20;;;;;;5011396;28;20037;-49
2021/05/08 08:27:02;;;;;;;1.00;0.57;;;21.20;36.20;;;;;;5010783;28;20026;-49
2021/05/08 08:29:28;;;;;;;1.75;0.70;;;21.30;36.20;;;;;;5011260;28;20033;-49
2021/05/08 08:31:54;;;;;;;1.38;0.93;;;21.30;36.20;;;;;;5010733;28;20053;-50
2021/05/08 08:34:20;;;;;;;1.15;0.70;;;21.30;36.20;;;;;;5010950;28;20041;-49
2021/05/08 08:36:46;;;;;;;1.00;0.50;;;21.30;36.20;;;;;;5005402;28;20028;-50
2021/05/08 08:39:12;;;;;;;1.15;0.82;;;21.30;36.20;;;;;;5011135;28;20044;-49
2021/05/08 08:41:38;;;;;;;2.13;0.98;;;21.30;36.20;;;;;;5011434;28;20117;-50
2021/05/08 08:44:10;;;;;;;0.80;0.40;;;21.30;36.20;;;;;;5010145;28;20064;-50
2021/05/08 08:46:44;;;;;;;1.30;0.63;;;21.30;36.20;;;;;;5007982;28;20690;-52
2021/05/08 08:49:11;;;;;;;1.83;0.68;;;21.30;36.20;;;;;;5010218;28;20055;-51
2021/05/08 08:51:39;;;;;;;2.00;0.88;;;21.30;36.20;;;;;;5020603;28;20041;-49
2021/05/08 08:54:06;;;;;;;1.25;1.00;;;21.30;36.20;;;;;;5030799;28;20032;-52
2021/05/08 08:56:40;;;;;;;2.92;0.98;;;21.20;36.20;;;;;;5029963;28;20036;-49
2021/05/08 08:59:27;;;;;;;0.82;0.60;;;21.30;36.20;;;;;;5023841;28;20032;-49
2021/05/08 09:01:54;;;;;;;1.35;0.60;;;21.30;36.20;;;;;;5030659;28;20697;-49
2021/05/08 09:04:21;;;;;;;1.63;0.70;;;21.30;36.20;;;;;;5031147;28;20532;-49
2021/05/08 09:06:48;;;;;;;1.05;0.60;;;21.30;36.20;;;;;;5030121;28;20030;-49
2021/05/08 09:09:16;;;;;;;1.50;0.73;;;21.30;36.20;;;;;;5030402;28;20128;-49
2021/05/08 09:11:48;;;;;;;1.00;0.30;;;21.30;36.20;;;;;;5031080;28;20674;-49
2021/05/08 09:14:23;;;;;;;1.65;0.60;;;21.30;36.20;;;;;;5030578;28;20677;-50
2021/05/08 09:17:15;;;;;;;1.10;0.50;;;21.30;36.10;;;;;;5030105;28;20030;-50
2021/05/08 09:19:51;;;;;;;1.00;0.50;;;21.30;36.20;;;;;;5030583;28;20095;-51
2021/05/08 09:22:28;;;;;;;1.00;0.47;;;21.30;36.20;;;;;;5031828;28;20672;-48
2021/05/08 09:25:08;;;;;;;2.05;0.60;;;21.30;36.10;;;;;;5028639;28;20255;-47
2021/05/08 09:27:38;;;;;;;0.68;0.35;;;21.30;36.10;;;;;;5027497;28;20037;-49
2021/05/08 09:30:06;;;;;;;1.73;0.60;;;21.40;36.10;;;;;;5023523;28;20053;-49
2021/05/08 09:32:37;;;;;;;1.25;0.45;;;21.40;36.10;;;;;;5030362;28;20037;-49
2021/05/08 09:35:27;;;;;;;0.93;0.60;;;21.30;36.10;;;;;;5029837;28;20544;-50
2021/05/08 09:38:15;;;;;;;0.70;0.45;;;21.40;36.10;;;;;;5026941;28;20099;-48
2021/05/08 09:40:46;;;;;;;1.10;0.50;;;21.40;36.00;;;;;;5029827;28;20025;-50
2021/05/08 09:43:17;;;;;;;1.02;0.50;;;21.40;36.00;;;;;;5030631;28;20037;-50
2021/05/08 09:45:45;;;;;;;0.70;0.40;;;21.40;36.00;;;;;;5030958;28;20079;-50
2021/05/08 09:48:26;;;;;;;1.27;0.50;;;21.40;36.00;;;;;;5029938;28;20280;-51
2021/05/08 09:50:52;;;;;;;1.02;0.40;;;21.40;36.00;;;;;;5029599;28;20029;-50
2021/05/08 09:53:31;;;;;;;0.50;0.25;;;21.40;35.90;;;;;;5030148;28;20032;-50
2021/05/08 09:55:58;;;;;;;0.70;0.40;;;21.40;35.90;;;;;;5029620;28;20057;-50
2021/05/08 09:58:26;;;;;;;0.70;0.40;;;21.40;35.90;;;;;;5032946;28;20093;-51
2021/05/08 10:00:53;;;;;;;0.82;0.22;;;21.50;35.90;;;;;;5033492;28;20770;-50
2021/05/08 10:03:21;;;;;;;0.75;0.30;;;21.50;35.80;;;;;;5032472;28;20022;-50
2021/05/08 10:06:07;;;;;;;0.75;0.25;;;21.50;35.80;;;;;;5030481;28;20585;-49
2021/05/08 10:08:33;;;;;;;0.85;0.30;;;21.50;35.80;;;;;;5033457;28;20028;-50
2021/05/08 10:10:59;;;;;;;0.52;0.20;;;21.50;35.90;;;;;;5032921;28;20025;-51
2021/05/08 10:13:27;;;;;;;0.50;0.30;;;21.50;35.90;;;;;;5032596;28;20028;-50
2021/05/08 10:15:57;;;;;;;0.45;0.28;;;21.50;35.90;;;;;;5032518;28;20033;-50
2021/05/08 10:18:24;;;;;;;0.60;0.20;;;21.50;35.80;;;;;;5033150;28;20029;-49
2021/05/08 10:20:51;;;;;;;0.80;0.30;;;21.50;35.90;;;;;;5033204;28;20036;-50
2021/05/08 10:23:17;;;;;;;0.80;0.20;;;21.50;36.00;;;;;;5032542;28;20025;-50
2021/05/08 10:25:44;;;;;;;0.70;0.30;;;21.50;35.90;;;;;;5033756;28;20025;-51
2021/05/08 10:28:10;;;;;;;2.05;0.20;;;21.50;35.90;;;;;;5033309;28;20130;-49
2021/05/08 10:30:42;;;;;;;0.60;0.20;;;21.60;36.00;;;;;;5032873;28;20498;-49
2021/05/08 10:33:17;;;;;;;0.60;0.20;;;21.60;36.00;;;;;;5027272;28;20354;-49
2021/05/08 10:35:47;;;;;;;0.85;0.40;;;21.50;36.00;;;;;;5031847;28;20617;-50
2021/05/08 10:38:23;;;;;;;1.27;0.43;;;21.60;36.20;;;;;;5032219;28;20113;-51
2021/05/08 10:41:02;;;;;;;0.80;0.43;;;21.60;36.10;;;;;;5031649;28;20026;-49
2021/05/08 10:43:43;;;;;;;1.13;0.30;;;21.60;36.20;;;;;;5032084;28;20025;-50
2021/05/08 10:46:10;;;;;;;1.77;0.65;;;21.60;36.10;;;;;;5025979;28;20037;-50
2021/05/08 10:48:37;;;;;;;1.25;0.20;;;21.60;36.20;;;;;;5031668;28;20030;-50
2021/05/08 10:51:03;;;;;;;0.80;0.30;;;21.60;36.20;;;;;;5032146;28;20067;-50
2021/05/08 10:53:43;;;;;;;1.05;0.38;;;21.60;36.20;;;;;;5031432;28;20032;-50
2021/05/08 10:56:32;;;;;;;1.33;0.40;;;21.60;36.20;;;;;;5031287;28;20108;-50
2021/05/08 10:59:08;;;;;;;1.33;0.40;;;21.60;36.20;;;;;;5031349;28;20047;-50
2021/05/08 11:01:44;;;;;;;1.00;0.40;;;21.60;36.20;;;;;;5031879;28;20046;-49
2021/05/08 11:04:11;;;;;;;1.50;0.20;;;21.60;36.20;;;;;;5028314;28;20041;-50
2021/05/08 11:06:38;;;;;;;1.95;0.40;;;21.60;36.20;;;;;;5031921;28;20043;-49
2021/05/08 11:09:05;;;;;;;0.90;0.30;;;21.60;36.20;;;;;;5031521;28;20116;-49
2021/05/08 11:11:47;;;;;;;0.82;0.20;;;21.60;36.20;;;;;;5029072;28;20753;-49
2021/05/08 11:14:13;;;;;;;0.93;0.20;;;21.60;36.20;;;;;;5031296;28;20160;-51
2021/05/08 11:16:59;;;;;;;1.55;0.30;;;21.60;36.10;;;;;;5025067;28;20026;-49
2021/05/08 11:19:25;;;;;;;0.82;0.20;;;21.60;36.10;;;;;;5031817;28;20076;-50
2021/05/08 11:22:05;;;;;;;1.25;0.40;;;21.60;36.10;;;;;;5030995;28;20064;-50
2021/05/08 11:24:36;;;;;;;0.30;0.15;;;21.60;36.10;;;;;;5036856;28;20029;-48
2021/05/08 11:27:02;;;;;;;0.75;0.30;;;21.60;36.10;;;;;;5032107;28;20550;-50
2021/05/08 11:29:30;;;;;;;2.50;0.20;;;21.60;36.10;;;;;;5032394;28;20487;-51
2021/05/08 11:31:58;;;;;;;0.80;0.20;;;21.60;36.00;;;;;;5032571;28;20032;-50
2021/05/08 11:34:29;;;;;;;1.25;0.30;;;21.60;36.10;;;;;;5034441;28;20049;-49
2021/05/08 11:37:11;;;;;;;0.70;0.20;;;21.70;36.10;;;;;;5032155;28;20371;-50
2021/05/08 11:39:44;;;;;;;0.65;0.20;;;21.70;36.10;;;;;;5032106;28;20032;-49
2021/05/08 11:42:17;;;;;;;0.57;0.30;;;21.70;36.00;;;;;;5031706;28;20041;-50
2021/05/08 11:44:46;;;;;;;0.40;0.10;;;21.70;36.10;;;;;;5029896;28;20033;-51
2021/05/08 11:47:31;;;;;;;0.43;0.10;;;21.70;36.00;;;;;;5032312;28;20095;-50
2021/05/08 11:50:13;;;;;;;0.98;0.20;;;21.70;36.00;;;;;;5032279;28;20092;-50
2021/05/08 11:52:47;;;;;;;0.47;0.15;;;21.70;36.00;;;;;;5031040;28;20033;-50
2021/05/08 11:55:15;;;;;;;0.40;0.20;;;21.70;36.00;;;;;;5031674;28;20025;-50
2021/05/08 11:57:45;;;;;;;1.13;0.20;;;21.70;36.00;;;;;;5032185;28;20030;-49
2021/05/08 12:00:17;;;;;;;0.80;0.20;;;21.70;36.00;;;;;;5031936;28;20109;-49
2021/05/08 12:02:44;;;;;;;0.40;0.10;;;21.70;36.00;;;;;;5027517;28;20025;-50
2021/05/08 12:05:10;;;;;;;1.67;0.20;;;21.70;36.00;;;;;;5032295;28;20029;-50
2021/05/08 12:07:41;;;;;;;0.50;0.10;;;21.70;36.00;;;;;;5032112;28;20029;-49
2021/05/08 12:10:20;;;;;;;0.43;0.20;;;21.70;36.00;;;;;;5031722;28;20028;-50
2021/05/08 12:12:47;;;;;;;0.32;0.15;;;21.70;36.00;;;;;;5031603;28;20029;-50
2021/05/08 12:15:32;;;;;;;0.20;0.10;;;21.70;36.00;;;;;;5031488;28;20441;-51
2021/05/08 12:18:00;;;;;;;1.17;0.20;;;21.70;36.00;;;;;;5032068;28;20025;-50
2021/05/08 12:20:31;;;;;;;0.50;0.20;;;21.70;36.00;;;;;;5031020;28;20152;-50
2021/05/08 12:23:04;;;;;;;1.23;0.28;;;21.80;36.00;;;;;;5031439;28;20033;-49
2021/05/08 12:25:30;;;;;;;0.30;0.10;;;21.70;35.90;;;;;;5031308;28;20079;-50
2021/05/08 12:28:20;;;;;;;0.65;0.10;;;21.70;35.90;;;;;;5030304;28;20029;-49
2021/05/08 12:30:48;;;;;;;0.65;0.17;;;21.70;35.90;;;;;;5034556;28;20025;-50
2021/05/08 12:33:25;;;;;;;0.50;0.20;;;21.70;36.00;;;;;;5029257;28;20026;-50
2021/05/08 12:35:54;;;;;;;0.20;0.08;;;21.70;36.00;;;;;;5029837;28;20022;-48
2021/05/08 12:38:38;;;;;;;0.98;0.10;;;21.70;36.00;;;;;;5030621;28;20056;-49
2021/05/08 12:41:26;;;;;;;0.40;0.10;;;21.70;36.00;;;;;;5030445;28;20029;-50
2021/05/08 12:44:08;;;;;;;2.17;0.10;;;21.70;36.00;;;;;;5025000;28;20108;-50
2021/05/08 12:46:53;;;;;;;;;;;21.70;36.00;;;;;;5031331;28;20390;-50
2021/05/08 12:49:20;;;;;;;0.45;0.20;;;21.70;36.00;;;;;;5029074;28;19920;-49
2021/05/08 12:51:47;;;;;;;0.50;0.10;;;21.70;36.00;;;;;;5030854;28;20037;-49
2021/05/08 12:54:20;;;;;;;0.93;0.20;;;21.70;36.10;;;;;;5030991;28;20033;-48
2021/05/08 12:56:47;;;;;;;1.15;0.10;;;21.70;36.00;;;;;;5030873;28;20026;-50